EDW34 LSZH-MDPC
Flight info
| Callsign | EDW34 |
|---|---|
| Flight time | N/A |
| Altitude | 30000 |
| Route | VEBIT T10 TORPA DCT REKLA DCT RLP DCT ROTSI DCT AMODO DCT COHPA UM729 RESMI UN491 LGL UN502 JSY DCT LIZAD DCT ARKIL/M081F300 DCT DINIM/M081F310 DCT 51N020W 50N030W 48N040W 46N050W DCT SUPRY/M083F340 DCT BOBTU M203 SELIM DCT 29N070W/N0485F360 DCT MNDEZ DCT ELMUC DCT KATOK KATOK2B |
| Aircraft | A343/H-SDE2E3FGHIJ4J5M1RWXY/LB1D1 |
Departure
| Time | 2026-05-08 04:27 |
|---|---|
| Airport | Zürich Airport (LSZH) |
Arrival
| Time | N/A |
|---|---|
| Airport | Punta Cana International Airport (MDPC) |
| Time | Latitude | Longitude | Altitude | Speed | Heading |
|---|---|---|---|---|---|
| 2026-05-08 04:08 | 47.46199 | 8.55189 | 1398 ft | 0 kts | 185° |
| 2026-05-08 04:18 | 47.46216 | 8.55192 | 1408 ft | 4 kts | 185° |
| 2026-05-08 04:18 | 47.46242 | 8.55195 | 1397 ft | 2 kts | 185° |
| 2026-05-08 04:19 | 47.46263 | 8.55193 | 1407 ft | 4 kts | 142° |
| 2026-05-08 04:19 | 47.46277 | 8.55163 | 1407 ft | 4 kts | 103° |
| 2026-05-08 04:19 | 47.46281 | 8.55129 | 1406 ft | 1 kts | 96° |
| 2026-05-08 04:19 | 47.46286 | 8.55095 | 1406 ft | 4 kts | 119° |
| 2026-05-08 04:20 | 47.46303 | 8.55069 | 1394 ft | 4 kts | 161° |
| 2026-05-08 04:20 | 47.46329 | 8.55063 | 1404 ft | 4 kts | 185° |
| 2026-05-08 04:20 | 47.46351 | 8.55067 | 1403 ft | 0 kts | 185° |
| 2026-05-08 04:22 | 47.46350 | 8.55067 | 1394 ft | 1 kts | 185° |
| 2026-05-08 04:22 | 47.46310 | 8.55036 | 1404 ft | 11 kts | 231° |
| 2026-05-08 04:23 | 47.46299 | 8.54896 | 1399 ft | 17 kts | 275° |
| 2026-05-08 04:23 | 47.46327 | 8.54745 | 1384 ft | 13 kts | 313° |
| 2026-05-08 04:23 | 47.46428 | 8.54659 | 1388 ft | 22 kts | 337° |
| 2026-05-08 04:23 | 47.46600 | 8.54541 | 1399 ft | 31 kts | 335° |
| 2026-05-08 04:24 | 47.46793 | 8.54417 | 1382 ft | 30 kts | 339° |
| 2026-05-08 04:24 | 47.46972 | 8.54301 | 1386 ft | 26 kts | 335° |
| 2026-05-08 04:24 | 47.47130 | 8.54190 | 1385 ft | 27 kts | 334° |
| 2026-05-08 04:24 | 47.47306 | 8.54069 | 1399 ft | 27 kts | 335° |
| 2026-05-08 04:25 | 47.47461 | 8.53962 | 1407 ft | 22 kts | 335° |
| 2026-05-08 04:25 | 47.47590 | 8.53873 | 1407 ft | 18 kts | 335° |
| 2026-05-08 04:25 | 47.47689 | 8.53795 | 1410 ft | 14 kts | 317° |
| 2026-05-08 04:25 | 47.47692 | 8.53697 | 1412 ft | 8 kts | 241° |
| 2026-05-08 04:26 | 47.47623 | 8.53643 | 1409 ft | 17 kts | 198° |
| 2026-05-08 04:26 | 47.47508 | 8.53636 | 1409 ft | 17 kts | 155° |
| 2026-05-08 04:26 | 47.47388 | 8.53720 | 1404 ft | 27 kts | 155° |
| 2026-05-08 04:26 | 47.47066 | 8.53943 | 1385 ft | 76 kts | 155° |
| 2026-05-08 04:27 | 47.46452 | 8.54365 | 1382 ft | 119 kts | 155° |
| 2026-05-08 04:27 | 47.45597 | 8.54955 | 1402 ft | 154 kts | 155° |
| 2026-05-08 04:27 | 47.44534 | 8.55687 | 1423 ft | 182 kts | 155° |
| 2026-05-08 04:27 | 47.43436 | 8.56375 | 2074 ft | 163 kts | 156° |
| 2026-05-08 04:28 | 47.42322 | 8.57064 | 2239 ft | 182 kts | 158° |
| 2026-05-08 04:28 | 47.41013 | 8.57208 | 2350 ft | 203 kts | 200° |
| 2026-05-08 04:28 | 47.39925 | 8.55835 | 2561 ft | 220 kts | 244° |
| 2026-05-08 04:28 | 47.39694 | 8.53554 | 2686 ft | 235 kts | 284° |
| 2026-05-08 04:29 | 47.40512 | 8.51467 | 2833 ft | 244 kts | 322° |
| 2026-05-08 04:29 | 47.42063 | 8.50383 | 3062 ft | 252 kts | 344° |
| 2026-05-08 04:29 | 47.43610 | 8.49123 | 3340 ft | 262 kts | 312° |
| 2026-05-08 04:29 | 47.44461 | 8.46708 | 3565 ft | 276 kts | 278° |
| 2026-05-08 04:30 | 47.44264 | 8.43860 | 3819 ft | 287 kts | 245° |
| 2026-05-08 04:30 | 47.43103 | 8.41452 | 4247 ft | 291 kts | 225° |